createdAt,value
2023-02-24T00:02:02.343Z,98770.19
2023-02-24T00:04:32.674Z,98766.91
2023-02-24T00:07:01.384Z,98765.88
2023-02-24T00:09:32.228Z,98766.06
2023-02-24T00:12:03.121Z,98757.38
2023-02-24T00:14:34.552Z,98758.22
2023-02-24T00:17:03.095Z,98755.41
2023-02-24T00:19:34.145Z,98755.22
2023-02-24T00:22:05.928Z,98741.91
2023-02-24T00:24:36.833Z,98739.50
2023-02-24T00:27:11.404Z,98740.44
2023-02-24T00:29:40.394Z,98741.84
2023-02-24T00:32:13.394Z,98735.22
2023-02-24T00:34:44.220Z,98729.94
2023-02-24T00:37:12.615Z,98726.06
2023-02-24T00:39:44.496Z,98720.44
2023-02-24T00:42:13.108Z,98714.97
2023-02-24T00:44:45.411Z,98715.84
2023-02-24T00:47:17.088Z,98716.16
2023-02-24T00:49:46.127Z,98709.31
2023-02-24T00:52:18.037Z,98705.72
2023-02-24T00:54:49.965Z,98712.50
2023-02-24T00:57:21.526Z,98709.97
2023-02-24T00:59:52.417Z,98705.91
2023-02-24T01:02:21.624Z,98699.50
2023-02-24T01:04:51.209Z,98700.25
2023-02-24T01:07:19.513Z,98698.66
2023-02-24T01:09:52.505Z,98699.28
2023-02-24T01:12:38.920Z,98698.25
2023-02-24T01:15:10.230Z,98694.88
2023-02-24T01:17:38.671Z,98688.94
2023-02-24T01:20:16.742Z,98685.06
2023-02-24T01:22:46.108Z,98689.84
2023-02-24T01:25:15.985Z,98679.22
2023-02-24T01:27:44.467Z,98681.78
2023-02-24T01:30:16.196Z,98679.16
2023-02-24T01:32:45.252Z,98677.63
2023-02-24T01:35:14.754Z,98674.44
2023-02-24T01:37:43.335Z,98671.31
2023-02-24T01:40:21.916Z,98673.47
2023-02-24T01:42:51.126Z,98677.72
2023-02-24T01:45:26.172Z,98673.03
2023-02-24T01:47:56.314Z,98667.19
2023-02-24T01:50:26.540Z,98667.63
2023-02-24T01:52:58.748Z,98667.91
2023-02-24T01:55:33.897Z,98654.75
2023-02-24T01:58:06.484Z,98659.75
2023-02-24T02:00:45.573Z,98652.22
2023-02-24T02:03:28.134Z,98650.06
2023-02-24T02:06:01.717Z,98651.06
2023-02-24T02:08:30.610Z,98639.06
2023-02-24T02:11:06.559Z,98647.69
2023-02-24T02:13:38.281Z,98636.97
2023-02-24T02:16:25.826Z,98633.00
2023-02-24T02:19:08.255Z,98635.09
2023-02-24T02:22:05.699Z,98625.00
2023-02-24T02:24:50.708Z,98612.19
2023-02-24T02:27:29.639Z,98618.25
2023-02-24T02:30:49.600Z,98611.91
2023-02-24T02:34:00.966Z,98613.72
2023-02-24T02:36:40.095Z,98609.00
2023-02-24T02:39:18.093Z,98602.03
2023-02-24T02:41:55.078Z,98599.84
2023-02-24T02:44:32.397Z,98599.41
2023-02-24T02:47:06.414Z,98595.81
2023-02-24T02:49:40.181Z,98594.22
2023-02-24T02:52:15.684Z,98584.16
2023-02-24T02:54:51.289Z,98594.19
2023-02-24T02:57:25.100Z,98584.31
2023-02-24T02:59:57.618Z,98579.34
2023-02-24T03:02:30.812Z,98590.25
2023-02-24T03:05:02.521Z,98576.50
2023-02-24T03:07:40.590Z,98579.31
2023-02-24T03:10:17.831Z,98571.72
2023-02-24T03:12:50.888Z,98576.75
2023-02-24T03:15:22.304Z,98576.84
2023-02-24T03:17:56.796Z,98572.56
2023-02-24T03:20:29.476Z,98578.47
2023-02-24T03:23:03.861Z,98569.50
2023-02-24T03:25:44.605Z,98567.59
2023-02-24T03:28:17.869Z,98554.56
2023-02-24T03:30:52.326Z,98558.34
2023-02-24T03:33:26.631Z,98562.13
2023-02-24T03:35:56.604Z,98557.13
2023-02-24T03:38:26.321Z,98557.13
2023-02-24T03:40:56.326Z,98562.56
2023-02-24T03:43:28.128Z,98553.06
2023-02-24T03:45:57.632Z,98554.19
2023-02-24T03:48:28.491Z,98548.91
2023-02-24T03:50:59.545Z,98543.53
2023-02-24T03:53:43.255Z,98544.66
2023-02-24T03:56:27.112Z,98544.66
2023-02-24T03:59:08.274Z,98545.22
2023-02-24T04:01:46.616Z,98538.16
2023-02-24T04:04:27.656Z,98540.31
2023-02-24T04:06:59.941Z,98528.88
2023-02-24T04:09:40.099Z,98535.81
2023-02-24T04:12:17.263Z,98531.84
2023-02-24T04:14:52.289Z,98531.50
2023-02-24T04:17:24.242Z,98534.19
2023-02-24T04:20:09.417Z,98525.19
2023-02-24T04:22:38.350Z,98529.72
2023-02-24T04:25:13.876Z,98517.13
2023-02-24T04:27:43.966Z,98519.50
2023-02-24T04:30:14.375Z,98512.44
2023-02-24T04:32:44.407Z,98512.00
2023-02-24T04:35:16.902Z,98521.09
2023-02-24T04:37:46.600Z,98523.97
2023-02-24T04:40:22.185Z,98516.69
2023-02-24T04:42:52.180Z,98504.16
2023-02-24T04:45:23.605Z,98498.88
2023-02-24T04:47:56.401Z,98498.91
2023-02-24T04:50:26.746Z,98497.84
2023-02-24T04:52:57.376Z,98494.34
2023-02-24T04:55:33.183Z,98490.81
2023-02-24T04:58:02.270Z,98490.72
2023-02-24T05:00:35.676Z,98496.25
2023-02-24T05:03:05.967Z,98495.09
2023-02-24T05:05:35.830Z,98482.78
2023-02-24T05:08:06.579Z,98479.97
2023-02-24T05:10:41.140Z,98479.66
2023-02-24T05:13:11.087Z,98474.00
2023-02-24T05:15:42.114Z,98473.38
2023-02-24T05:18:14.923Z,98474.91
2023-02-24T05:21:02.467Z,98472.09
2023-02-24T05:23:33.623Z,98466.78
2023-02-24T05:26:08.568Z,98469.16
2023-02-24T05:28:38.094Z,98469.84
2023-02-24T05:31:08.612Z,98467.00
2023-02-24T05:33:37.938Z,98471.69
2023-02-24T05:36:10.111Z,98462.91
2023-02-24T05:38:39.195Z,98469.13
2023-02-24T05:41:15.223Z,98457.38
2023-02-24T05:43:44.805Z,98453.00
2023-02-24T05:46:13.735Z,98456.69
2023-02-24T05:48:41.941Z,98456.09
2023-02-24T05:51:12.398Z,98454.34
2023-02-24T05:53:45.085Z,98447.16
2023-02-24T05:56:14.799Z,98449.47
2023-02-24T05:58:45.264Z,98447.88
2023-02-24T06:01:16.500Z,98440.81
2023-02-24T06:03:48.331Z,98441.50
2023-02-24T06:06:17.803Z,98445.22
2023-02-24T06:08:50.690Z,98439.56
2023-02-24T06:11:21.723Z,98446.47
2023-02-24T06:13:50.204Z,98443.28
2023-02-24T06:16:20.312Z,98448.78
2023-02-24T06:18:50.838Z,98448.19
2023-02-24T06:21:19.390Z,98451.03
2023-02-24T06:23:47.837Z,98454.09
2023-02-24T06:26:19.720Z,98454.59
2023-02-24T06:28:50.110Z,98449.69
2023-02-24T06:31:18.455Z,98445.13
2023-02-24T06:33:46.667Z,98449.03
2023-02-24T06:36:15.995Z,98449.00
2023-02-24T06:38:44.676Z,98443.78
2023-02-24T06:41:13.229Z,98449.97
2023-02-24T06:43:43.479Z,98449.44
2023-02-24T06:46:17.922Z,98441.59
2023-02-24T06:48:48.236Z,98435.50
2023-02-24T06:51:18.177Z,98443.53
2023-02-24T06:53:46.408Z,98452.59
2023-02-24T06:56:18.176Z,98446.84
2023-02-24T06:58:47.717Z,98453.66
2023-02-24T07:01:20.729Z,98455.25
2023-02-24T07:04:03.695Z,98438.72
2023-02-24T07:06:34.561Z,98444.91
2023-02-24T07:09:05.271Z,98441.50
2023-02-24T07:11:38.571Z,98441.78
2023-02-24T07:14:06.741Z,98446.22
2023-02-24T07:16:37.272Z,98444.00
2023-02-24T07:19:11.287Z,98436.09
2023-02-24T07:21:41.085Z,98439.16
2023-02-24T07:24:09.986Z,98435.34
2023-02-24T07:26:42.100Z,98434.50
2023-02-24T07:29:11.779Z,98432.28
2023-02-24T07:31:43.176Z,98424.75
2023-02-24T07:34:15.190Z,98424.94
2023-02-24T07:36:49.443Z,98429.38
2023-02-24T07:39:18.593Z,98419.84
2023-02-24T07:41:49.695Z,98427.66
2023-02-24T07:44:19.481Z,98418.50
2023-02-24T07:46:50.209Z,98408.78
2023-02-24T07:49:21.630Z,98398.97
2023-02-24T07:51:53.073Z,98399.00
2023-02-24T07:54:23.407Z,98401.38
2023-02-24T07:56:59.235Z,98392.81
2023-02-24T07:59:29.757Z,98392.53
2023-02-24T08:02:00.775Z,98399.47
2023-02-24T08:04:33.281Z,98384.19
2023-02-24T08:07:03.464Z,98379.94
2023-02-24T08:10:08.679Z,98380.31
2023-02-24T08:12:36.997Z,98377.03
2023-02-24T08:15:17.377Z,98366.22
2023-02-24T08:17:48.033Z,98359.94
2023-02-24T08:20:30.264Z,98373.16
2023-02-24T08:23:00.390Z,98361.41
2023-02-24T08:25:36.198Z,98360.19
2023-02-24T08:28:09.356Z,98360.28
2023-02-24T08:30:40.317Z,98360.38
2023-02-24T08:33:16.147Z,98348.69
2023-02-24T08:35:45.609Z,98344.94
2023-02-24T08:38:16.686Z,98345.25
2023-02-24T08:40:54.602Z,98336.25
2023-02-24T08:43:33.271Z,98334.44
2023-02-24T08:46:05.197Z,98329.66
2023-02-24T08:48:38.855Z,98328.50
2023-02-24T08:51:11.696Z,98320.34
2023-02-24T08:53:41.623Z,98313.28
2023-02-24T08:56:12.808Z,98313.97
2023-02-24T08:58:47.584Z,98303.22
2023-02-24T09:01:24.734Z,98307.91
2023-02-24T09:03:57.553Z,98300.06
2023-02-24T09:06:36.446Z,98299.44
2023-02-24T09:09:21.445Z,98294.28
2023-02-24T09:11:56.812Z,98297.22
2023-02-24T09:14:29.279Z,98276.97
2023-02-24T09:17:07.150Z,98279.91
2023-02-24T09:20:02.427Z,98265.03
2023-02-24T09:22:31.902Z,98262.47
2023-02-24T09:25:24.286Z,98246.56
2023-02-24T09:27:56.272Z,98248.28
2023-02-24T09:30:51.262Z,98238.78
2023-02-24T09:33:23.053Z,98235.94
2023-02-24T09:36:10.897Z,98224.75
2023-02-24T09:38:57.672Z,98214.31
2023-02-24T09:41:33.819Z,98215.66
2023-02-24T09:44:07.990Z,98209.53
2023-02-24T09:46:54.335Z,98208.81
2023-02-24T09:49:25.971Z,98214.44
2023-02-24T09:52:00.866Z,98207.44
2023-02-24T09:54:36.093Z,98204.72
2023-02-24T09:57:16.965Z,98196.38
2023-02-24T10:00:01.420Z,98188.06
2023-02-24T10:02:44.718Z,98195.38
2023-02-24T10:05:27.652Z,98177.69
2023-02-24T10:08:00.708Z,98177.25
2023-02-24T10:10:36.060Z,98182.75
2023-02-24T10:13:15.226Z,98175.59
2023-02-24T10:15:59.672Z,98167.16
2023-02-24T10:18:34.325Z,98160.94
2023-02-24T10:21:15.699Z,98155.53
2023-02-24T10:24:05.735Z,98163.34
2023-02-24T10:26:59.534Z,98159.97
2023-02-24T10:29:39.456Z,98151.41
2023-02-24T10:32:24.172Z,98146.59
2023-02-24T10:34:53.419Z,98158.41
2023-02-24T10:37:28.574Z,98154.00
2023-02-24T10:40:00.531Z,98139.22
2023-02-24T10:42:32.902Z,98148.38
2023-02-24T10:45:18.773Z,98147.53
2023-02-24T10:47:57.393Z,98141.13
2023-02-24T10:50:37.471Z,98138.88
2023-02-24T10:53:28.633Z,98134.13
2023-02-24T10:56:18.850Z,98139.72
2023-02-24T10:59:17.979Z,98133.41
2023-02-24T11:01:55.178Z,98128.47
2023-02-24T11:04:44.366Z,98120.47
2023-02-24T11:07:24.867Z,98130.69
2023-02-24T11:10:26.420Z,98125.72
2023-02-24T11:13:14.816Z,98111.91
2023-02-24T11:16:04.598Z,98118.66
2023-02-24T11:18:34.829Z,98093.25
2023-02-24T11:21:05.306Z,98103.66
2023-02-24T11:23:37.779Z,98097.38
2023-02-24T11:26:17.016Z,98099.59
2023-02-24T11:29:04.417Z,98087.16
2023-02-24T11:31:46.126Z,98089.66
2023-02-24T11:34:24.918Z,98091.06
2023-02-24T11:37:06.781Z,98083.47
2023-02-24T11:39:53.297Z,98087.47
2023-02-24T11:42:28.010Z,98083.25
2023-02-24T11:45:05.269Z,98078.19
2023-02-24T11:47:41.286Z,98078.41
2023-02-24T11:50:31.047Z,98078.91
2023-02-24T11:53:12.123Z,98063.94
2023-02-24T11:55:47.076Z,98061.44
2023-02-24T11:58:23.261Z,98051.84
2023-02-24T12:01:01.432Z,98037.84
2023-02-24T12:03:36.672Z,98033.75
2023-02-24T12:06:15.110Z,98043.75
2023-02-24T12:08:49.064Z,98027.94
2023-02-24T12:11:25.342Z,98027.53
2023-02-24T12:14:00.887Z,98006.47
2023-02-24T12:16:37.599Z,98013.59
2023-02-24T12:19:18.800Z,98006.25
2023-02-24T12:21:53.679Z,98004.13
2023-02-24T12:24:25.547Z,98003.91
2023-02-24T12:27:06.589Z,98009.63
2023-02-24T12:29:52.514Z,97995.81
2023-02-24T12:32:31.938Z,97987.59
2023-02-24T12:35:14.126Z,97993.00
2023-02-24T12:37:53.994Z,97993.50
2023-02-24T12:40:32.439Z,97984.84
2023-02-24T12:43:13.223Z,97976.66
2023-02-24T12:45:53.642Z,97989.19
2023-02-24T12:48:41.034Z,97980.44
2023-02-24T12:51:14.484Z,97963.16
2023-02-24T12:53:49.101Z,97969.06
2023-02-24T12:56:24.380Z,97972.88
2023-02-24T12:58:58.288Z,97956.56
2023-02-24T13:01:33.451Z,97953.06
2023-02-24T13:04:14.355Z,97952.66
2023-02-24T13:06:55.954Z,97946.75
2023-02-24T13:09:33.926Z,97945.47
2023-02-24T13:12:13.284Z,97939.81
2023-02-24T13:14:46.326Z,97931.72
2023-02-24T13:17:21.695Z,97935.19
2023-02-24T13:19:53.465Z,97930.75
2023-02-24T13:22:25.565Z,97919.28
2023-02-24T13:25:16.240Z,97923.72
2023-02-24T13:27:45.259Z,97922.13
2023-02-24T13:30:37.282Z,97917.06
2023-02-24T13:33:22.524Z,97922.66
2023-02-24T13:35:56.056Z,97899.41
2023-02-24T13:38:35.612Z,97913.78
2023-02-24T13:41:09.845Z,97900.03
2023-02-24T13:43:38.287Z,97899.28
2023-02-24T13:46:19.021Z,97888.66
2023-02-24T13:49:02.023Z,97894.03
2023-02-24T13:51:54.059Z,97887.06
2023-02-24T13:54:52.599Z,97890.66
2023-02-24T13:58:09.380Z,97886.22
2023-02-24T14:00:53.711Z,97888.22
2023-02-24T14:03:25.671Z,97883.59
2023-02-24T14:05:55.526Z,97890.97
2023-02-24T14:08:34.453Z,97886.88
2023-02-24T14:11:06.416Z,97885.59
2023-02-24T14:13:36.860Z,97887.88
2023-02-24T14:16:11.867Z,97885.19
2023-02-24T14:18:41.424Z,97878.19
2023-02-24T14:21:24.171Z,97878.81
2023-02-24T14:24:02.455Z,97865.94
2023-02-24T14:26:36.668Z,97871.28
2023-02-24T14:29:05.151Z,97867.13
2023-02-24T14:31:35.825Z,97865.81
2023-02-24T14:34:09.489Z,97864.34
2023-02-24T14:36:43.391Z,97859.97
2023-02-24T14:39:17.528Z,97866.25
2023-02-24T14:41:47.623Z,97857.16
2023-02-24T14:44:23.783Z,97850.59
2023-02-24T14:46:55.006Z,97845.75
2023-02-24T14:49:27.376Z,97837.56
2023-02-24T14:52:00.460Z,97844.88
2023-02-24T14:54:44.712Z,97843.59
2023-02-24T14:57:16.059Z,97845.59
2023-02-24T14:59:49.531Z,97829.66
2023-02-24T15:02:24.827Z,97839.31
2023-02-24T15:04:55.940Z,97834.78
2023-02-24T15:07:29.578Z,97824.56
2023-02-24T15:10:01.524Z,97832.53
2023-02-24T15:12:35.330Z,97830.13
2023-02-24T15:15:06.984Z,97837.34
2023-02-24T15:17:40.595Z,97842.31
2023-02-24T15:20:27.642Z,97841.94
2023-02-24T15:22:55.782Z,97826.22
2023-02-24T15:25:37.234Z,97825.09
2023-02-24T15:28:24.556Z,97831.56
2023-02-24T15:31:04.052Z,97832.22
2023-02-24T15:33:37.136Z,97824.34
2023-02-24T15:36:11.486Z,97805.78
2023-02-24T15:38:42.700Z,97817.97
2023-02-24T15:41:13.893Z,97822.09
2023-02-24T15:43:48.078Z,97823.88
2023-02-24T15:46:22.749Z,97812.19
2023-02-24T15:48:53.530Z,97813.28
2023-02-24T15:51:28.758Z,97809.75
2023-02-24T15:53:57.261Z,97811.88
2023-02-24T15:56:29.261Z,97812.19
2023-02-24T15:58:59.132Z,97808.88
2023-02-24T16:01:27.834Z,97813.03
2023-02-24T16:03:56.066Z,97808.69
2023-02-24T16:06:26.056Z,97820.22
2023-02-24T16:08:58.659Z,97799.91
2023-02-24T16:11:33.182Z,97808.53
2023-02-24T16:14:01.891Z,97812.81
2023-02-24T16:16:33.526Z,97804.19
2023-02-24T16:19:01.760Z,97801.78
2023-02-24T16:21:30.373Z,97798.50
2023-02-24T16:23:58.747Z,97807.09
2023-02-24T16:26:29.010Z,97803.16
2023-02-24T16:28:59.470Z,97797.38
2023-02-24T16:31:28.812Z,97807.41
2023-02-24T16:33:58.643Z,97810.19
2023-02-24T16:36:28.484Z,97801.97
2023-02-24T16:38:57.059Z,97803.94
2023-02-24T16:41:25.626Z,97806.72
2023-02-24T16:43:55.165Z,97802.78
2023-02-24T16:46:24.710Z,97811.50
2023-02-24T16:48:54.919Z,97838.34
2023-02-24T16:51:23.808Z,97807.72
2023-02-24T16:53:52.023Z,97806.81
2023-02-24T16:56:20.964Z,97807.53
2023-02-24T16:58:49.391Z,97811.38
2023-02-24T17:01:22.370Z,97811.13
2023-02-24T17:03:54.064Z,97802.47
2023-02-24T17:06:25.124Z,97813.84
2023-02-24T17:08:55.245Z,97807.22
2023-02-24T17:11:27.755Z,97801.47
2023-02-24T17:13:55.901Z,97799.56
2023-02-24T17:16:25.930Z,97799.31
2023-02-24T17:18:54.397Z,97804.03
2023-02-24T17:21:22.745Z,97799.50
2023-02-24T17:23:51.745Z,97798.75
2023-02-24T17:26:20.205Z,97802.56
2023-02-24T17:28:49.043Z,97803.81
2023-02-24T17:31:17.295Z,97803.91
2023-02-24T17:33:46.869Z,97802.31
2023-02-24T17:36:15.280Z,97806.63
2023-02-24T17:38:43.408Z,97809.34
2023-02-24T17:41:11.809Z,97807.81
2023-02-24T17:43:40.025Z,97803.16
2023-02-24T17:46:08.548Z,97799.69
2023-02-24T17:48:37.101Z,97791.00
2023-02-24T17:51:07.300Z,97776.59
2023-02-24T17:53:35.575Z,97790.44
2023-02-24T17:56:04.858Z,97792.69
2023-02-24T17:58:34.014Z,97783.03
2023-02-24T18:01:03.245Z,97794.31
2023-02-24T18:03:32.323Z,97797.84
2023-02-24T18:06:02.068Z,97797.94
2023-02-24T18:08:33.197Z,97784.94
2023-02-24T18:11:01.443Z,97791.41
2023-02-24T18:13:30.825Z,97791.47
2023-02-24T18:15:59.281Z,97793.94
2023-02-24T18:18:30.405Z,97798.41
2023-02-24T18:21:04.492Z,97794.03
2023-02-24T18:23:34.922Z,97792.88
2023-02-24T18:26:04.344Z,97796.25
2023-02-24T18:28:33.597Z,97790.63
2023-02-24T18:31:03.453Z,97791.22
2023-02-24T18:33:31.784Z,97794.19
2023-02-24T18:36:00.847Z,97778.06
2023-02-24T18:38:29.858Z,97788.84
2023-02-24T18:41:02.940Z,97784.25
2023-02-24T18:43:32.301Z,97769.66
2023-02-24T18:46:02.504Z,97771.03
2023-02-24T18:48:31.641Z,97782.00
2023-02-24T18:51:00.897Z,97775.19
2023-02-24T18:53:31.869Z,97769.56
2023-02-24T18:56:02.607Z,97773.34
2023-02-24T18:58:31.319Z,97768.63
2023-02-24T19:00:59.777Z,97781.19
2023-02-24T19:03:28.458Z,97776.84
2023-02-24T19:05:56.553Z,97778.28
2023-02-24T19:08:24.842Z,97777.13
2023-02-24T19:10:52.920Z,97769.19
2023-02-24T19:13:24.163Z,97771.41
2023-02-24T19:15:52.624Z,97783.41
2023-02-24T19:18:20.948Z,97782.38
2023-02-24T19:20:49.109Z,97776.69
2023-02-24T19:23:17.264Z,97782.56
2023-02-24T19:25:47.810Z,97778.25
2023-02-24T19:28:17.315Z,97772.56
2023-02-24T19:30:47.152Z,97767.41
2023-02-24T19:33:15.530Z,97760.88
2023-02-24T19:35:45.202Z,97761.22
2023-02-24T19:38:15.301Z,97768.19
2023-02-24T19:40:43.526Z,97749.38
2023-02-24T19:43:12.683Z,97754.91
2023-02-24T19:45:42.812Z,97742.06
2023-02-24T19:48:12.635Z,97740.66
2023-02-24T19:50:43.477Z,97741.69
2023-02-24T19:53:13.668Z,97741.78
2023-02-24T19:55:41.829Z,97748.88
2023-02-24T19:58:09.842Z,97737.88
2023-02-24T20:00:37.956Z,97732.88
2023-02-24T20:03:06.051Z,97732.03
2023-02-24T20:05:41.853Z,97742.53
2023-02-24T20:08:10.369Z,97744.41
2023-02-24T20:10:39.138Z,97742.44
2023-02-24T20:13:08.786Z,97735.69
2023-02-24T20:15:37.430Z,97730.91
2023-02-24T20:18:08.850Z,97734.47
2023-02-24T20:20:38.988Z,97736.72
2023-02-24T20:23:07.448Z,97737.28
2023-02-24T20:25:35.543Z,97732.16
2023-02-24T20:28:04.212Z,97736.34
2023-02-24T20:30:32.549Z,97731.94
2023-02-24T20:33:00.911Z,97730.53
2023-02-24T20:35:29.116Z,97737.56
2023-02-24T20:37:58.686Z,97744.38
2023-02-24T20:40:27.466Z,97749.53
2023-02-24T20:42:55.469Z,97751.47
2023-02-24T20:45:23.507Z,97752.06
2023-02-24T20:47:51.929Z,97760.75
2023-02-24T20:50:20.339Z,97757.78
2023-02-24T20:52:48.459Z,97765.63
2023-02-24T20:55:18.622Z,97769.19
2023-02-24T20:57:46.873Z,97766.06
2023-02-24T21:00:15.847Z,97765.91
2023-02-24T21:02:44.258Z,97763.91
2023-02-24T21:05:20.507Z,97777.38
2023-02-24T21:07:50.161Z,97770.06
2023-02-24T21:10:25.371Z,97763.13
2023-02-24T21:12:54.830Z,97767.91
2023-02-24T21:15:23.162Z,97762.38
2023-02-24T21:17:51.416Z,97760.03
2023-02-24T21:20:20.126Z,97766.31
2023-02-24T21:22:48.295Z,97771.56
2023-02-24T21:25:16.432Z,97766.69
2023-02-24T21:27:48.582Z,97760.34
2023-02-24T21:30:17.540Z,97754.53
2023-02-24T21:32:45.669Z,97754.53
2023-02-24T21:35:13.821Z,97750.13
2023-02-24T21:37:41.928Z,97752.63
2023-02-24T21:40:12.577Z,97762.59
2023-02-24T21:42:43.994Z,97765.22
2023-02-24T21:45:15.186Z,97756.88
2023-02-24T21:47:43.520Z,97765.06
2023-02-24T21:50:16.164Z,97761.59
2023-02-24T21:52:47.023Z,97765.44
2023-02-24T21:55:15.730Z,97762.16
2023-02-24T21:57:45.878Z,97767.88
2023-02-24T22:00:20.338Z,97761.50
2023-02-24T22:02:50.047Z,97763.19
2023-02-24T22:05:20.528Z,97761.13
2023-02-24T22:07:49.967Z,97763.66
2023-02-24T22:10:21.469Z,97757.25
2023-02-24T22:12:50.825Z,97763.06
2023-02-24T22:15:20.864Z,97761.59
2023-02-24T22:17:49.045Z,97764.69
2023-02-24T22:20:17.134Z,97775.56
2023-02-24T22:22:45.412Z,97764.06
2023-02-24T22:25:13.915Z,97773.69
2023-02-24T22:27:43.188Z,97773.69
2023-02-24T22:30:14.179Z,97762.06
2023-02-24T22:32:44.296Z,97757.66
2023-02-24T22:35:12.643Z,97760.59
2023-02-24T22:37:41.129Z,97764.91
2023-02-24T22:40:10.686Z,97773.22
2023-02-24T22:42:39.040Z,97762.47
2023-02-24T22:45:08.669Z,97776.41
2023-02-24T22:47:37.028Z,97769.41
2023-02-24T22:50:07.407Z,97777.81
2023-02-24T22:52:35.767Z,97781.47
2023-02-24T22:55:03.832Z,97786.06
2023-02-24T22:57:34.296Z,97782.13
2023-02-24T23:00:02.501Z,97785.22
2023-02-24T23:02:31.020Z,97785.03
2023-02-24T23:04:59.595Z,97795.72
2023-02-24T23:07:29.724Z,97794.75
2023-02-24T23:09:59.435Z,97792.50
2023-02-24T23:12:27.968Z,97786.31
2023-02-24T23:14:56.311Z,97790.72
2023-02-24T23:17:24.352Z,97797.94
2023-02-24T23:19:52.456Z,97794.84
2023-02-24T23:22:20.899Z,97803.19
2023-02-24T23:24:53.673Z,97813.47
2023-02-24T23:27:23.612Z,97812.94
2023-02-24T23:29:51.837Z,97815.63
2023-02-24T23:32:20.292Z,97818.78
2023-02-24T23:34:48.724Z,97814.03
2023-02-24T23:37:16.940Z,97822.28
2023-02-24T23:39:45.077Z,97822.56
2023-02-24T23:42:14.895Z,97823.41
2023-02-24T23:44:44.390Z,97819.00
2023-02-24T23:47:14.814Z,97820.50
2023-02-24T23:49:48.507Z,97828.38
2023-02-24T23:52:17.232Z,97829.56
2023-02-24T23:54:49.997Z,97833.31
2023-02-24T23:57:19.809Z,97825.25
2023-02-24T23:59:47.934Z,97831.72
